Home > Products > Valid Products > MTR

000
SAUS44 KMAF 171501
MTRGDP
METAR KGDP 171451Z AUTO 11008KT 9SM CLR 13/M04 A3010 RMK AO2 SLP135
T01281039 51029





000
SAUS44 KMAF 171454
MTR6R6
METAR K6R6 171453Z AUTO 09007KT 15/11 A2999 RMK AO1 SLP132 T01500106
51031





000
SAUS44 KMAF 171354
MTR6R6
METAR K6R6 171353Z AUTO 08006KT 14/11 A2997 RMK AO1 SLP125 T01390106





000
SAUS44 KMAF 171352
MTRGDP
METAR KGDP 171351Z AUTO 08007KT 9SM CLR 12/M05 A3007 RMK AO2 SLP123
T01171050





000
SAUS44 KMAF 171254
MTR6R6
METAR K6R6 171253Z AUTO 36006KT 12/09 A2994 RMK AO1 SLP116 T01170089





000
SAUS44 KMAF 171252
MTRGDP
METAR KGDP 171251Z AUTO 20004KT 8SM CLR 11/M07 A3003 RMK AO2 SLP111
T01061072





000
SAUS44 KMAF 171154
MTR6R6
METAR K6R6 171153Z AUTO 04007KT 10/08 A2989 RMK AO1 SLP099 T01000078
10161 20100 53012





000
SAUS44 KMAF 171152
MTRGDP
METAR KGDP 171151Z AUTO 08006KT 10SM CLR 10/M07 A3000 RMK AO2 SLP097
T01001067 10172 20100 53015





000
SAUS44 KMAF 171054
MTR6R6
METAR K6R6 171053Z AUTO VRB03KT 12/08 A2988 RMK AO1 SLP091 T01220083





000
SAUS44 KMAF 171052
MTRGDP
METAR KGDP 171051Z AUTO 02008KT 10SM CLR 13/M08 A2997 RMK AO2 SLP077
T01331083





000
SAUS44 KMAF 170954
MTR6R6
METAR K6R6 170953Z AUTO 09009KT 14/08 A2986 RMK AO1 SLP084 T01390078





000
SAUS44 KMAF 170952
MTRGDP
METAR KGDP 170951Z AUTO 07012KT 9SM CLR 12/M07 A2996 RMK AO2 PK WND
05028/0928 SLP074 T01171072





000
SAUS44 KMAF 170854
MTR6R6
METAR K6R6 170853Z AUTO 05003KT 13/06 A2985 RMK AO1 SLP082 T01280061
53003





000
SAUS44 KMAF 170853
MTRGDP
METAR KGDP 170851Z AUTO 10010KT 9SM CLR 13/M11 A2995 RMK AO2 SLP069
T01331111 53010





000
SAUS44 KMAF 170754
MTR6R6
METAR K6R6 170753Z AUTO 06005KT 14/06 A2985 RMK AO1 SLP081 T01390056





000
SAUS44 KMAF 170752
MTRGDP
METAR KGDP 170751Z AUTO 26010G18KT 10SM CLR 17/M17 A2993 RMK AO2
SLP060 T01671172





000
SAUS44 KMAF 170654
MTR6R6
METAR K6R6 170653Z AUTO 09006KT 15/06 A2984 RMK AO1 SLP078 T01500056





000
SAUS44 KMAF 170653
MTRGDP
METAR KGDP 170651Z AUTO 24010KT 10SM CLR 16/M17 A2992 RMK AO2 SLP056
T01611172 402610094





000
SAUS44 KMAF 170554
MTR6R6
METAR K6R6 170553Z AUTO 08005KT 16/05 A2984 RMK AO1 SLP080 T01610050
10233 20156 402560061 51006





000
SAUS44 KMAF 170553
MTRGDP
METAR KGDP 170551Z AUTO 26008KT 10SM CLR 17/M17 A2991 RMK AO2 SLP057
T01721172 10233 20167 53009





000
SAUS44 KMAF 170454
MTR6R6
METAR K6R6 170453Z AUTO 11008KT 17/05 A2984 RMK AO1 SLP081 T01720050





000
SAUS44 KMAF 170453
MTRGDP
METAR KGDP 170451Z AUTO 24006KT 10SM CLR 18/M17 A2990 RMK AO2 SLP056
T01831172





000
SAUS44 KMAF 170354
MTR6R6
METAR K6R6 170353Z AUTO 12015G23KT 18/04 A2983 RMK AO1 SLP079
T01830044





000
SAUS44 KMAF 170353
MTRGDP
METAR KGDP 170351Z AUTO 27010KT 10SM CLR 19/M18 A2989 RMK AO2 SLP056
T01941178





000
SAUS44 KMAF 170254
MTR6R6
METAR K6R6 170253Z AUTO 11010G21KT 19/03 A2982 RMK AO1 SLP078
T01890033 53009





000
SAUS44 KMAF 170253
MTRGDP
METAR KGDP 170251Z AUTO 27013KT 10SM CLR 19/M18 A2988 RMK AO2 SLP059
T01941178 53012





000
SAUS44 KMAF 170154
MTR6R6
METAR K6R6 170153Z AUTO 12013KT 20/02 A2980 RMK AO1 SLP072 T02000022





000
SAUS44 KMAF 170153
MTRGDP
METAR KGDP 170151Z AUTO 25016G21KT 10SM CLR 20/M18 A2986 RMK AO2 PK
WND 24029/0104 SLP053 T02001178





000
SAUS44 KMAF 170054
MTR6R6
METAR K6R6 170053Z AUTO 11016G21KT 21/02 A2979 RMK AO1 SLP069
T02110017





000
SAUS44 KMAF 170052
MTRGDP
METAR KGDP 170051Z AUTO 24017G25KT 9SM CLR 22/M17 A2985 RMK AO2 PK
WND 25033/2352 SLP047 T02171167





000
SAUS44 KMAF 162354
MTR6R6
METAR K6R6 162353Z AUTO 12016G23KT 23/02 A2980 RMK AO1 SLP068
T02330017 10256 20189 56012





000
SAUS44 KMAF 162354 COR
MTRGDP
METAR KGDP 162351Z AUTO 25025G33KT 9SM CLR 23/M16 A2984 RMK AO2 PK
WND 24033/2342 SLP039 T02331161 10261 20211 56011





000
SAUS44 KMAF 162353
MTRGDP
METAR KGDP 162351Z AUTO 25025G33KT 9SM CLR 23/M16 A2984 RMK AO2 PK
WND 24033/2342 SLP039 T02331161 10261 20211 56011





000
SAUS44 KMAF 162353 COR
MTRGDP
METAR KGDP 162351Z AUTO 25025G33KT 9SM CLR 23/M16 A2984 RMK AO2 PK
WND 24033/2342 SLP039 T02331161 10261 20211 56011





000
SAUS44 KMAF 162254
MTR6R6
METAR K6R6 162253Z AUTO 11014KT 24/01 A2980 RMK AO1 SLP070 T02390011





000
SAUS44 KMAF 162252
MTRGDP
METAR KGDP 162251Z AUTO 25022G34KT 9SM CLR 25/M15 A2984 RMK AO2 PK
WND 25039/2157 SLP040 T02501150





000
SAUS44 KMAF 162154
MTR6R6
METAR K6R6 162153Z AUTO 13014KT 24/M01 A2981 RMK AO1 SLP072
T02441006





000
SAUS44 KMAF 162152
MTRGDP
METAR KGDP 162151Z AUTO 24033G42KT 9SM CLR 26/M14 A2984 RMK AO2 PK
WND 24042/2150 SLP032 T02561144





000
SAUS44 KMAF 162054
MTR6R6
METAR K6R6 162053Z AUTO 13013G19KT 25/M02 A2984 RMK AO1 SLP080
T02501022 56034





000
SAUS44 KMAF 162053
MTRGDP
METAR KGDP 162051Z AUTO 23022G26KT 9SM CLR 26/M10 A2988 RMK AO2 PK
WND 24027/2028 SLP048 T02561100 58025





000
SAUS44 KMAF 161954
MTR6R6
METAR K6R6 161953Z AUTO 11014G18KT 24/M03 A2987 RMK AO1 SLP090
T02391033





000
SAUS44 KMAF 161953
MTRGDP
METAR KGDP 161951Z AUTO 23014G23KT 9SM CLR 24/M09 A2991 RMK AO2 PK
WND 24031/1915 SLP062 T02391089





000
SAUS44 KMAF 161854
MTR6R6
METAR K6R6 161853Z AUTO 13010KT 23/M03 A2990 RMK AO1 SLP100
T02281033





000
SAUS44 KMAF 161853
MTRGDP
METAR KGDP 161851Z AUTO 25020KT 9SM CLR 23/M09 A2993 RMK AO2 PK WND
24030/1819 SLP071 T02331089





000
SAUS44 KMAF 161754 COR
MTRGDP
METAR KGDP 161751Z AUTO 23013G22KT 9SM CLR 22/M08 A2996 RMK AO2 PK
WND 24027/1736 SLP082 T02171083 10217 20094 58001





000
SAUS44 KMAF 161754
MTR6R6
METAR K6R6 161753Z AUTO 13010G16KT 20/M04 A2994 RMK AO1 SLP116
T02001044 10200 20061 58008





000
SAUS44 KMAF 161753 COR
MTRGDP
METAR KGDP 161751Z AUTO 23013G22KT 9SM CLR 22/M08 A2996 RMK AO2 PK
WND 24027/1736 SLP082 T02171083 10217 20094 58001





000
SAUS44 KMAF 161752
MTRGDP
METAR KGDP 161751Z AUTO 23013G22KT 9SM CLR 22/M08 A2996 RMK AO2 PK
WND 24027/1736 SLP082 T02171083 10217 20094 58001





000
SAUS44 KMAF 161654
MTR6R6
METAR K6R6 161653Z AUTO 11008KT 17/M05 A2997 RMK AO1 SLP127
T01721050





000
SAUS44 KMAF 161653
MTRGDP
METAR KGDP 161651Z AUTO 23016KT 8SM CLR 18/M09 A2997 RMK AO2 SLP092
T01831089





000
SAUS44 KMAF 161554
MTR6R6
METAR K6R6 161553Z AUTO 10008KT 15/M07 A2998 RMK AO1 SLP134
T01501067





000
SAUS44 KMAF 161552
MTRGDP
METAR KGDP 161551Z AUTO 23014KT 8SM CLR 16/M09 A2997 RMK AO2 SLP092
T01561094





000
SAUS44 KMAF 161454
MTR6R6
METAR K6R6 161453Z AUTO 11008KT 12/M08 A2997 RMK AO1 SLP132
T01221078 50005





000
SAUS44 KMAF 161453
MTRGDP
METAR KGDP 161451Z AUTO 23008KT 8SM CLR 12/M11 A2997 RMK AO2 SLP100
T01171106 51003





000
SAUS44 KMAF 161355
MTR6R6
METAR K6R6 161353Z AUTO 10007KT 11/M08 A2997 RMK AO1 SLP132
T01061083





000
SAUS44 KMAF 161353
MTRGDP
METAR KGDP 161351Z AUTO 24007KT 8SM CLR 11/M11 A2996 RMK AO2 SLP102
T01061106





000
SAUS44 KMAF 161254
MTR6R6
METAR K6R6 161253Z AUTO 04005KT 07/M09 A2996 RMK AO1 SLP129
T00671094





000
SAUS44 KMAF 161253
MTRGDP
METAR KGDP 161251Z AUTO 23009KT 8SM CLR 10/M11 A2996 RMK AO2 SLP095
T01001111





000
SAUS44 KMAF 161154
MTR6R6
METAR K6R6 161153Z AUTO 05005KT 07/M10 A2995 RMK AO1 SLP124
T00671100 10128 20061 56005





000
SAUS44 KMAF 161153
MTRGDP
METAR KGDP 161151Z AUTO 24007KT 10SM CLR 11/M12 A2995 RMK AO2 SLP090
T01061117 10122 20094 55005





000
SAUS44 KMAF 161054
MTR6R6
METAR K6R6 161053Z AUTO 04005KT 07/M10 A2995 RMK AO1 SLP124
T00671100





000
SAUS44 KMAF 161053
MTRGDP
METAR KGDP 161051Z AUTO 25008KT 10SM CLR 11/M11 A2995 RMK AO2 SLP089
T01061111





000
SAUS44 KMAF 160954
MTR6R6
METAR K6R6 160953Z AUTO 06006KT 07/M09 A2996 RMK AO1 SLP126
T00721094





000
SAUS44 KMAF 160953
MTRGDP
METAR KGDP 160951Z AUTO 23006KT 10SM CLR 12/M12 A2996 RMK AO2 SLP090
T01221117





000
SAUS44 KMAF 160854
MTR6R6
METAR K6R6 160853Z AUTO 06005KT 08/M09 A2997 RMK AO1 SLP129
T00831094 58008





000
SAUS44 KMAF 160852
MTRGDP
METAR KGDP 160851Z AUTO 26008KT 10SM CLR 11/M12 A2997 RMK AO2 SLP098
T01061122 56010





000
SAUS44 KMAF 160754
MTR6R6
METAR K6R6 160753Z AUTO 04003KT 10/M09 A2998 RMK AO1 SLP135
T01001094





000
SAUS44 KMAF 160752
MTRGDP
METAR KGDP 160751Z AUTO 25009KT 10SM CLR 11/M14 A2997 RMK AO2 SLP101
T01111139





000
SAUS44 KMAF 160654
MTR6R6
METAR K6R6 160653Z AUTO 10006KT 12/M09 A2999 RMK AO1 SLP135
T01171094





000
SAUS44 KMAF 160653
MTRGDP
METAR KGDP 160651Z AUTO 23010KT 10SM CLR 12/M17 A2998 RMK AO2 SLP106
T01221172 401891017





000
SAUS44 KMAF 160554
MTR6R6
METAR K6R6 160553Z AUTO 11009KT 13/M10 A3000 RMK AO1 SLP139
T01281100 10206 20111 402110011 58013





000
SAUS44 KMAF 160553
MTRGDP
METAR KGDP 160551Z AUTO 25011KT 10SM CLR 12/M18 A3001 RMK AO2 SLP117
T01221178 10178 20122 58008





000
SAUS44 KMAF 160454
MTR6R6
METAR K6R6 160453Z AUTO 11006KT 12/M10 A3002 RMK AO1 SLP150
T01221100





000
SAUS44 KMAF 160453
MTRGDP
METAR KGDP 160451Z AUTO 23009KT 10SM CLR 13/M19 A3002 RMK AO2 SLP127
T01281189





000
SAUS44 KMAF 160354
MTR6R6
METAR K6R6 160353Z AUTO 06004KT 12/M11 A3004 RMK AO1 SLP156
T01171106





000
SAUS44 KMAF 160353
MTRGDP
METAR KGDP 160351Z AUTO 20008KT 10SM CLR 14/M19 A3004 RMK AO2 SLP134
T01391194





000
SAUS44 KMAF 160254
MTR6R6
METAR K6R6 160253Z AUTO 05005KT 12/M11 A3004 RMK AO1 SLP157
T01221111 55002





000
SAUS44 KMAF 160253
MTRGDP
METAR KGDP 160251Z AUTO 20012KT 10SM CLR 14/M20 A3004 RMK AO2 SLP138
T01391200 55007





000
SAUS44 KMAF 160154
MTR6R6
METAR K6R6 160153Z AUTO 09007KT 16/M11 A3003 RMK AO1 SLP153
T01611111





000
SAUS44 KMAF 160153
MTRGDP
METAR KGDP 160151Z AUTO 24010KT 10SM CLR 14/M18 A3003 RMK AO2 SLP144
T01391178





000
SAUS44 KMAF 160054
MTR6R6
METAR K6R6 160053Z AUTO 11010KT 18/M12 A3003 RMK AO1 SLP155
T01831117





000
SAUS44 KMAF 160053
MTRGDP
METAR KGDP 160051Z AUTO 24013KT 9SM CLR 17/M17 A3004 RMK AO2 SLP145
T01671172





000
SAUS44 KMAF 152354
MTR6R6
METAR K6R6 152353Z AUTO 10013G17KT 21/M13 A3004 RMK AO1 SLP158
T02061128 10211 20144 56031





000
SAUS44 KMAF 152353
MTRGDP
METAR KGDP 152351Z AUTO 23011G18KT 9SM CLR 18/M16 A3006 RMK AO2
SLP152 60000 T01831161 10189 20117 56027





000
SAUS44 KMAF 152254
MTR6R6
METAR K6R6 152253Z AUTO 13009KT 21/M13 A3007 RMK AO1 SLP165
T02061128





000
SAUS44 KMAF 152252
MTRGDP
METAR KGDP 152251Z AUTO 24013G20KT 210V290 9SM CLR 18/M15 A3008 RMK
AO2 RAE2157 SLP158 P0000 T01781150





000
SAUS44 KMAF 152154
MTR6R6
METAR K6R6 152153Z AUTO 13012G17KT 21/M13 A3009 RMK AO1 SLP175
T02061128





000
SAUS44 KMAF 152152
MTRGDP
METAR KGDP 152151Z AUTO 23016G25KT 10SM -RA CLR 18/M16 A3011 RMK AO2
RAB22E31B47 SLP166 P0000 T01781156





000
SAUS44 KMAF 152054
MTR6R6
METAR K6R6 152053Z AUTO 10010KT 20/M13 A3014 RMK AO1 SLP191
T02001128 58042





000
SAUS44 KMAF 152053
MTRGDP
METAR KGDP 152051Z AUTO 25010G23KT 9SM CLR 17/M13 A3015 RMK AO2
RAB1957E02 SLP184 P0000 60000 T01721128 56029





000
SAUS44 KMAF 151954
MTR6R6
METAR K6R6 151953Z AUTO 10008KT 070V140 18/M12 A3019 RMK AO1 SLP209
T01781117





000
SAUS44 KMAF 151953
MTRGDP
METAR KGDP 151951Z AUTO 23017G23KT 9SM CLR 15/M11 A3018 RMK AO2 PK
WND 24027/1916 RAB1852E43 SLP195 P0000 T01501111





000
SAUS44 KMAF 151854
MTR6R6
METAR K6R6 151853Z AUTO 17006KT 17/M11 A3023 RMK AO1 SLP224
T01671106





000
SAUS44 KMAF 151853
MTRGDP
METAR KGDP 151851Z AUTO 24017G24KT 10SM CLR 13/M11 A3022 RMK AO2
RAB08E47 SLP211 P0000 T01331111





000
SAUS44 KMAF 151754
MTR6R6
METAR K6R6 151753Z AUTO VRB05KT 14/M09 A3028 RMK AO1 SLP238
T01441089 10156 20011 58026





000
SAUS44 KMAF 151753
MTRGDP
METAR KGDP 151751Z AUTO 24014G20KT 9SM CLR 12/M12 A3025 RMK AO2
SLP226 T01171117 10128 21017 58011





000
SAUS44 KMAF 151654
MTR6R6
METAR K6R6 151653Z AUTO VRB06KT 13/M09 A3031 RMK AO1 SLP251
T01331089





000
SAUS44 KMAF 151653
MTRGDP
METAR KGDP 151651Z AUTO 24007KT 9SM CLR 09/M11 A3028 RMK AO2 SLP239
T00941106





000
SAUS44 KMAF 151554
MTR6R6
METAR K6R6 151553Z AUTO 14007KT 12/M09 A3034 RMK AO1 SLP261
T01171094





000
SAUS44 KMAF 151553
MTRGDP
METAR KGDP 151551Z AUTO VRB03KT 9SM CLR 07/M09 A3029 RMK AO2 SLP248
T00671094





000
SAUS44 KMAF 151454
MTR6R6
METAR K6R6 151453Z AUTO 13009KT 10/M09 A3036 RMK AO1 SLP266
T01001094 50009





000
SAUS44 KMAF 151453
MTRGDP
METAR KGDP 151451Z AUTO 10006KT 9SM CLR 05/M11 A3029 RMK AO2 SLP252
T00501106 52014





000
SAUS44 KMAF 151354
MTR6R6
METAR K6R6 151353Z AUTO 12005KT 08/M09 A3036 RMK AO1 SLP268
T00831089





000
SAUS44 KMAF 151353
MTRGDP
METAR KGDP 151351Z AUTO 08010KT 9SM CLR 02/M09 A3029 RMK AO2 PK WND
06026/1300 SLP256 T00171089





000
SAUS44 KMAF 151254
MTR6R6
METAR K6R6 151253Z AUTO 01004KT 04/M09 A3034 RMK AO1 SLP265
T00391089





000
SAUS44 KMAF 151252
MTRGDP
METAR KGDP 151251Z AUTO 06020KT 8SM CLR M01/M09 A3025 RMK AO2 SLP245
T10111094





000
SAUS44 KMAF 151154
MTR6R6
METAR K6R6 151153Z AUTO 01006KT 04/M09 A3033 RMK AO1 SLP258
T00391089 10083 20039 53005





000
SAUS44 KMAF 151154 COR
MTRGDP
METAR KGDP 151151Z AUTO 06017KT 10SM CLR M02/M10 A3024 RMK AO2 PK
WND 06026/1122 SLP243 T10171100 10017 21017 55012





000
SAUS44 KMAF 151153 COR
MTRGDP
METAR KGDP 151151Z AUTO 06017KT 10SM CLR M02/M10 A3024 RMK AO2 PK
WND 06026/1122 SLP243 T10171100 10017 21017 55012





000
SAUS44 KMAF 151153
MTRGDP
METAR KGDP 151151Z AUTO 06017KT 10SM CLR M02/M10 A3024 RMK AO2 PK
WND 06026/1122 SLP243 T10171100 10017 21017 55012





000
SAUS44 KMAF 151054
MTR6R6
METAR K6R6 151053Z AUTO 36008KT 05/M09 A3031 RMK AO1 SLP250
T00501089





000
SAUS44 KMAF 151053
MTRGDP
METAR KGDP 151051Z AUTO 06021KT 10SM CLR M01/M09 A3022 RMK AO2
PRESFR SLP231 T10111094





000
SAUS44 KMAF 150954
MTR6R6
METAR K6R6 150953Z AUTO 35008KT 04/M09 A3031 RMK AO1 SLP251
T00391089





000
SAUS44 KMAF 150952
MTRGDP
METAR KGDP 150951Z AUTO 06015KT 10SM CLR M01/M09 A3026 RMK AO2
SLP242 T10061094





000
SAUS44 KMAF 150854
MTR6R6
METAR K6R6 150853Z AUTO 34007KT 06/M08 A3031 RMK AO1 SLP251
T00561083 58009





000
SAUS44 KMAF 150852
MTRGDP
METAR KGDP 150851Z AUTO 05014KT 10SM CLR M01/M09 A3028 RMK AO2
SLP252 T10061094 56007





000
SAUS44 KMAF 150754
MTR6R6
METAR K6R6 150753Z AUTO 34007KT 06/M08 A3032 RMK AO1 SLP254
T00611083





000
SAUS44 KMAF 150752
MTRGDP
METAR KGDP 150751Z AUTO 06015KT 10SM CLR 00/M09 A3029 RMK AO2 SLP253
T00001089





000
SAUS44 KMAF 150654
MTR6R6
METAR K6R6 150653Z AUTO 34007KT 07/M08 A3033 RMK AO1 SLP259
T00721078





000
SAUS44 KMAF 150652
MTRGDP
METAR KGDP 150651Z AUTO 06014KT 10SM CLR 01/M09 A3030 RMK AO2 SLP259
T00061089 401611011





000
SAUS44 KMAF 150554
MTR6R6
METAR K6R6 150553Z AUTO 34006KT 08/M08 A3034 RMK AO1 SLP260
T00831078 10167 20083 401890083 51020





000
SAUS44 KMAF 150552
MTRGDP
METAR KGDP 150551Z AUTO 04018KT 10SM CLR 02/M09 A3031 RMK AO2 SLP263
T00171089 10061 20017 50014





000
SAUS44 KMAF 150454
MTR6R6
METAR K6R6 150453Z AUTO 34006KT 09/M08 A3033 RMK AO1 SLP256
T00941078





000
SAUS44 KMAF 150452
MTRGDP
METAR KGDP 150451Z AUTO 04018KT 10SM CLR 02/M09 A3032 RMK AO2 SLP267
T00171089





000
SAUS44 KMAF 150354
MTR6R6
METAR K6R6 150353Z AUTO 36007KT 11/M08 A3031 RMK AO1 SLP250
T01111078





000
SAUS44 KMAF 150353
MTRGDP
METAR KGDP 150351Z AUTO 05018KT 10SM CLR 02/M09 A3030 RMK AO2 PK WND
05029/0254 SLP263 T00171089





000
SAUS44 KMAF 150254
MTR6R6
METAR K6R6 150253Z AUTO 36009KT 13/M07 A3028 RMK AO1 SLP238
T01281072 53032





000
SAUS44 KMAF 150253
MTRGDP
METAR KGDP 150251Z AUTO 06025KT 10SM CLR 02/M09 A3026 RMK AO2 PK WND
06031/0206 SLP251 T00221089 53013





000
SAUS44 KMAF 150154
MTR6R6
METAR K6R6 150153Z AUTO 36010G19KT 14/M07 A3023 RMK AO1 SLP223
T01391067





000
SAUS44 KMAF 150153
MTRGDP
METAR KGDP 150151Z AUTO 06026KT 10SM CLR 03/M09 A3024 RMK AO2 PK WND
06032/0132 SLP243 T00331094





000
SAUS44 KMAF 150054
MTR6R6
METAR K6R6 150053Z AUTO 35017G23KT 15/M07 A3019 RMK AO1 PK WND
34026/0041 SLP210 T01501067





000
SAUS44 KMAF 150053
MTRGDP
METAR KGDP 150051Z AUTO 07025KT 9SM CLR 05/M09 A3023 RMK AO2 PK WND
07033/0021 SLP238 T00501094





000
SAUS44 KMAF 150001 COR
MTRGDP
METAR KGDP 142351Z AUTO 08026KT 9SM CLR 06/M09 A3022 RMK AO2 PK WND
08033/2321 SLP231 T00611094 10083 20039 55004





000
SAUS44 KMAF 142355 COR
MTRGDP
METAR KGDP 142351Z AUTO 08026KT 9SM CLR 06/M09 A3022 RMK AO2 PK WND
08033/2321 SLP231 T00611094 10083 20039 55004





000
SAUS44 KMAF 142354 COR
MTRGDP
METAR KGDP 142351Z AUTO 08026KT 9SM CLR 06/M09 A3022 RMK AO2 PK WND
08033/2321 SLP231 T00611094 10083 20039 55004





000
SAUS44 KMAF 142354
MTR6R6
METAR K6R6 142353Z AUTO 35013G21KT 17/M06 A3018 RMK AO1 PK WND
34031/2306 SLP202 T01721056 10178 20139 53007





000
SAUS44 KMAF 142353
MTRGDP
METAR KGDP 142351Z AUTO 08026KT 9SM CLR 06/M09 A3022 RMK AO2 PK WND
08033/2321 SLP231 T00611094 10083 20039 55004





000
SAUS44 KMAF 142254
MTR6R6
METAR K6R6 142253Z AUTO 35021G28KT 17/M05 A3016 RMK AO1 PK WND
35034/2202 SLP193 T01721050





000
SAUS44 KMAF 142253
MTRGDP
METAR KGDP 142251Z AUTO 08029G36KT 9SM CLR 07/M09 A3021 RMK AO2 PK
WND 08036/2251 SLP224 T00671089





000
SAUS44 KMAF 142250
MTRGDP
SPECI KGDP 142249Z AUTO 07024G30KT 9SM CLR 07/M09 A3022 RMK AO2 PK
WND 07033/2207





000
SAUS44 KMAF 142235
MTRGDP
SPECI KGDP 142233Z AUTO 07025G30KT 1 1/4SM HZ CLR 07/M08 A3022 RMK
AO2 PK WND 07033/2207 T00671083





000
SAUS44 KMAF 142154
MTR6R6
METAR K6R6 142153Z AUTO 35023G37KT 17/M04 A3015 RMK AO1 PK WND
36037/2151 SLP189 T01671039





000
SAUS44 KMAF 142152
MTRGDP
METAR KGDP 142151Z AUTO 08023G29KT 9SM CLR 07/M07 A3023 RMK AO2 PK
WND 08031/2053 SLP228 T00671072





000
SAUS44 KMAF 142054
MTR6R6
METAR K6R6 142053Z AUTO 33020G31KT 18/M04 A3015 RMK AO1 PK WND
35035/2003 SLP187 T01781039 56006





000
SAUS44 KMAF 142052
MTRGDP
METAR KGDP 142051Z AUTO 08024G31KT 9SM CLR 07/M07 A3023 RMK AO2 PK
WND 08031/2045 SLP224 T00671072 53000





000
SAUS44 KMAF 141954
MTR6R6
METAR K6R6 141953Z AUTO 35023G30KT 17/M04 A3016 RMK AO1 PK WND
34033/1855 SLP189 T01671039





000
SAUS44 KMAF 141953
MTRGDP
METAR KGDP 141951Z AUTO 07021G29KT 9SM CLR 07/M07 A3024 RMK AO2 PK
WND 08029/1950 SLP209 T00671072





000
SAUS44 KMAF 141854 COR
MTRGDP
METAR KGDP 141851Z AUTO 07024G29KT 9SM CLR 06/M07 A3022 RMK AO2 PK
WND 07029/1851 SLP196 T00561072





000
SAUS44 KMAF 141854
MTR6R6
METAR K6R6 141853Z AUTO 34024G38KT 15/M03 A3016 RMK AO1 PK WND
33038/1848 SLP193 T01501033





000
SAUS44 KMAF 141853 COR
MTRGDP
METAR KGDP 141851Z AUTO 07024G29KT 9SM CLR 06/M07 A3022 RMK AO2 PK
WND 07029/1851 SLP196 T00561072





000
SAUS44 KMAF 141852
MTRGDP
METAR KGDP 141851Z AUTO 07024G29KT 9SM CLR 06/M07 A3022 RMK AO2 PK
WND 07029/1851 SLP196 T00561072





000
SAUS44 KMAF 141754
MTR6R6
METAR K6R6 141753Z AUTO 35021G30KT 14/M03 A3017 RMK AO1 PK WND
35035/1712 SLP195 T01441033 10144 20083 51012





000
SAUS44 KMAF 141754 COR
MTRGDP
METAR KGDP 141751Z AUTO 05023G29KT 9SM CLR 04/M07 A3023 RMK AO2 PK
WND 08034/1730 SLP204 T00391067 10044 21011 51027





000
SAUS44 KMAF 141753
MTRGDP
METAR KGDP 141751Z AUTO 05023G29KT 9SM CLR 04/M07 A3023 RMK AO2 PK
WND 08034/1730 SLP204 T00391067 10044 21011 51027





000
SAUS44 KMAF 141753 COR
MTRGDP
METAR KGDP 141751Z AUTO 05023G29KT 9SM CLR 04/M07 A3023 RMK AO2 PK
WND 08034/1730 SLP204 T00391067 10044 21011 51027





000
SAUS44 KMAF 141654
MTR6R6
METAR K6R6 141653Z AUTO 34023G34KT 13/M03 A3017 RMK AO1 PK WND
32035/1642 SLP194 T01281028





000
SAUS44 KMAF 141652
MTRGDP
METAR KGDP 141651Z AUTO 06026G33KT 9SM CLR 03/M07 A3021 RMK AO2 PK
WND 07036/1609 SLP197 T00331067





000
SAUS44 KMAF 141554
MTR6R6
METAR K6R6 141553Z AUTO 34023G32KT 12/M02 A3016 RMK AO1 PK WND
33032/1546 SLP191 T01171017





000
SAUS44 KMAF 141553
MTRGDP
METAR KGDP 141551Z AUTO 07032G37KT 9SM CLR 02/M06 A3017 RMK AO2 PK
WND 07039/1524 SLP187 T00221061





    US Dept of Commerce
    National Oceanic and Atmospheric Administration
    National Weather Service
    1325 East West Highway
    Silver Spring, MD 20910
    Page Author: NWS Internet Services Team
Disclaimer
Information Quality
Credits
Glossary
Privacy Policy
Freedom of Information Act (FOIA)
About Us
Career Opportunities